createdAt,value
2022-10-07T00:01:09.800Z,8.20
2022-10-07T00:03:37.647Z,8.20
2022-10-07T00:06:07.203Z,8.10
2022-10-07T00:08:40.560Z,8.10
2022-10-07T00:11:17.803Z,8.00
2022-10-07T00:13:48.577Z,8.00
2022-10-07T00:16:21.045Z,7.90
2022-10-07T00:18:48.880Z,7.90
2022-10-07T00:21:18.908Z,7.80
2022-10-07T00:23:48.548Z,7.80
2022-10-07T00:26:20.630Z,7.80
2022-10-07T00:28:49.618Z,7.70
2022-10-07T00:31:26.031Z,7.70
2022-10-07T00:33:56.070Z,7.80
2022-10-07T00:36:29.314Z,7.80
2022-10-07T00:39:07.351Z,7.70
2022-10-07T00:41:42.593Z,7.70
2022-10-07T00:44:32.350Z,7.70
2022-10-07T00:47:05.516Z,7.60
2022-10-07T00:50:04.616Z,7.90
2022-10-07T00:52:39.105Z,7.50
2022-10-07T00:55:15.240Z,7.50
2022-10-07T00:57:44.893Z,7.40
2022-10-07T01:00:13.844Z,7.40
2022-10-07T01:02:41.992Z,7.40
2022-10-07T01:05:11.172Z,7.50
2022-10-07T01:07:39.259Z,7.50
2022-10-07T01:10:09.445Z,7.50
2022-10-07T01:13:22.129Z,7.60
2022-10-07T01:16:10.635Z,7.50
2022-10-07T01:19:01.194Z,7.50
2022-10-07T01:21:41.296Z,7.50
2022-10-07T01:24:55.113Z,7.30
2022-10-07T01:27:27.251Z,7.20
2022-10-07T01:30:03.488Z,7.40
2022-10-07T01:32:55.096Z,7.20
2022-10-07T01:35:32.903Z,7.20
2022-10-07T01:38:07.062Z,7.50
2022-10-07T01:40:45.471Z,7.50
2022-10-07T01:43:20.624Z,7.40
2022-10-07T01:45:51.641Z,7.40
2022-10-07T01:48:19.824Z,7.40
2022-10-07T01:50:48.536Z,7.40
2022-10-07T01:53:50.012Z,7.20
2022-10-07T01:56:51.810Z,7.10
2022-10-07T01:59:42.735Z,7.10
2022-10-07T02:02:56.620Z,7.00
2022-10-07T02:05:38.309Z,7.10
2022-10-07T02:08:26.680Z,7.10
2022-10-07T02:11:16.637Z,7.00
2022-10-07T02:14:12.579Z,7.00
2022-10-07T02:17:04.561Z,6.90
2022-10-07T02:19:41.027Z,6.80
2022-10-07T02:22:11.850Z,6.90
2022-10-07T02:24:41.984Z,6.80
2022-10-07T02:27:16.551Z,6.80
2022-10-07T02:29:52.905Z,6.90
2022-10-07T02:32:25.489Z,7.00
2022-10-07T02:35:03.304Z,6.90
2022-10-07T02:37:38.004Z,7.00
2022-10-07T02:40:12.091Z,7.10
2022-10-07T02:43:03.689Z,7.20
2022-10-07T02:46:20.440Z,7.20
2022-10-07T02:49:03.165Z,7.10
2022-10-07T02:51:54.960Z,7.00
2022-10-07T02:54:32.473Z,6.80
2022-10-07T02:57:02.169Z,6.80
2022-10-07T02:59:32.365Z,6.80
2022-10-07T03:02:02.955Z,6.60
2022-10-07T03:04:31.498Z,6.60
2022-10-07T03:07:01.271Z,6.50
2022-10-07T03:09:31.590Z,6.50
2022-10-07T03:12:00.514Z,6.50
2022-10-07T03:14:29.621Z,6.50
2022-10-07T03:16:57.522Z,6.50
2022-10-07T03:19:25.513Z,6.60
2022-10-07T03:21:57.245Z,6.60
2022-10-07T03:24:25.572Z,6.40
2022-10-07T03:26:54.302Z,6.40
2022-10-07T03:29:23.231Z,6.40
2022-10-07T03:31:51.541Z,6.40
2022-10-07T03:34:19.413Z,6.40
2022-10-07T03:36:49.865Z,6.40
2022-10-07T03:39:17.829Z,6.30
2022-10-07T03:41:47.304Z,6.20
2022-10-07T03:44:15.539Z,6.20
2022-10-07T03:46:43.749Z,6.20
2022-10-07T03:49:12.266Z,6.20
2022-10-07T03:51:40.669Z,6.20
2022-10-07T03:54:10.295Z,6.20
2022-10-07T03:56:39.618Z,6.20
2022-10-07T03:59:07.518Z,6.20
2022-10-07T04:01:36.015Z,6.20
2022-10-07T04:04:04.287Z,6.20
2022-10-07T04:06:36.352Z,6.30
2022-10-07T04:09:09.660Z,6.30
2022-10-07T04:11:40.639Z,6.30
2022-10-07T04:14:10.024Z,6.40
2022-10-07T04:16:39.800Z,6.40
2022-10-07T04:19:10.055Z,6.40
2022-10-07T04:21:37.991Z,6.40
2022-10-07T04:24:06.009Z,6.40
2022-10-07T04:26:34.102Z,6.40
2022-10-07T04:29:03.052Z,6.40
2022-10-07T04:31:31.799Z,6.40
2022-10-07T04:34:04.836Z,6.50
2022-10-07T04:36:36.794Z,6.40
2022-10-07T04:39:13.853Z,6.40
2022-10-07T04:41:48.223Z,6.40
2022-10-07T04:44:21.232Z,6.40
2022-10-07T04:46:58.917Z,6.40
2022-10-07T04:49:28.708Z,6.30
2022-10-07T04:51:58.997Z,6.20
2022-10-07T04:54:32.027Z,6.10
2022-10-07T04:57:00.388Z,6.20
2022-10-07T04:59:30.156Z,6.10
2022-10-07T05:01:59.156Z,6.00
2022-10-07T05:04:28.648Z,6.00
2022-10-07T05:06:57.947Z,6.00
2022-10-07T05:09:26.549Z,5.90
2022-10-07T05:11:57.538Z,5.90
2022-10-07T05:14:25.529Z,5.90
2022-10-07T05:16:54.216Z,5.90
2022-10-07T05:19:26.072Z,5.90
2022-10-07T05:21:55.215Z,6.00
2022-10-07T05:24:24.382Z,6.00
2022-10-07T05:26:52.362Z,6.00
2022-10-07T05:29:20.769Z,6.10
2022-10-07T05:31:52.309Z,6.20
2022-10-07T05:34:23.865Z,6.30
2022-10-07T05:36:53.646Z,6.40
2022-10-07T05:39:21.533Z,6.40
2022-10-07T05:41:56.398Z,6.50
2022-10-07T05:44:31.447Z,6.60
2022-10-07T05:47:02.121Z,6.60
2022-10-07T05:49:30.880Z,6.60
2022-10-07T05:51:59.505Z,6.50
2022-10-07T05:54:27.478Z,6.50
2022-10-07T05:56:57.287Z,6.50
2022-10-07T05:59:26.008Z,6.50
2022-10-07T06:02:01.048Z,6.50
2022-10-07T06:04:30.250Z,6.60
2022-10-07T06:06:58.104Z,6.60
2022-10-07T06:09:44.854Z,6.70
2022-10-07T06:12:34.634Z,6.80
2022-10-07T06:15:09.829Z,6.80
2022-10-07T06:17:45.291Z,6.80
2022-10-07T06:20:16.139Z,6.80
2022-10-07T06:22:45.386Z,6.80
2022-10-07T06:25:15.386Z,6.80
2022-10-07T06:27:48.425Z,6.80
2022-10-07T06:30:19.391Z,6.80
2022-10-07T06:32:47.373Z,6.80
2022-10-07T06:35:15.403Z,6.90
2022-10-07T06:37:43.742Z,6.90
2022-10-07T06:40:12.496Z,6.90
2022-10-07T06:42:40.953Z,6.90
2022-10-07T06:45:44.328Z,6.90
2022-10-07T06:48:14.013Z,6.90
2022-10-07T06:50:54.077Z,6.90
2022-10-07T06:53:24.967Z,6.90
2022-10-07T06:55:57.998Z,7.00
2022-10-07T06:58:27.682Z,7.00
2022-10-07T07:00:57.853Z,7.10
2022-10-07T07:03:26.167Z,7.10
2022-10-07T07:05:56.051Z,7.10
2022-10-07T07:08:31.787Z,7.20
2022-10-07T07:11:30.561Z,7.20
2022-10-07T07:14:04.264Z,7.30
2022-10-07T07:16:32.751Z,7.40
2022-10-07T07:19:08.811Z,7.40
2022-10-07T07:21:38.409Z,7.50
2022-10-07T07:24:07.970Z,7.50
2022-10-07T07:26:39.589Z,7.50
2022-10-07T07:29:09.372Z,7.60
2022-10-07T07:31:43.390Z,7.70
2022-10-07T07:34:13.388Z,7.80
2022-10-07T07:36:51.193Z,7.80
2022-10-07T07:39:21.034Z,8.00
2022-10-07T07:42:04.769Z,8.20
2022-10-07T07:44:34.890Z,8.20
2022-10-07T07:47:04.824Z,8.30
2022-10-07T07:49:34.372Z,8.30
2022-10-07T07:52:03.932Z,8.40
2022-10-07T07:54:38.362Z,8.50
2022-10-07T07:57:06.514Z,8.50
2022-10-07T07:59:37.576Z,8.60
2022-10-07T08:02:08.024Z,8.60
2022-10-07T08:04:38.625Z,8.70
2022-10-07T08:07:07.949Z,8.80
2022-10-07T08:09:36.192Z,8.90
2022-10-07T08:12:05.293Z,8.90
2022-10-07T08:14:33.572Z,9.10
2022-10-07T08:17:01.933Z,9.20
2022-10-07T08:19:30.756Z,9.30
2022-10-07T08:21:59.919Z,9.30
2022-10-07T08:24:30.383Z,9.40
2022-10-07T08:26:59.700Z,9.40
2022-10-07T08:29:27.637Z,9.50
2022-10-07T08:31:55.537Z,9.60
2022-10-07T08:34:23.423Z,9.70
2022-10-07T08:36:51.984Z,9.70
2022-10-07T08:39:19.832Z,9.80
2022-10-07T08:42:13.601Z,9.80
2022-10-07T08:44:48.700Z,9.90
2022-10-07T08:47:46.181Z,9.90
2022-10-07T08:50:37.101Z,10.00
2022-10-07T08:53:08.906Z,10.10
2022-10-07T08:55:43.914Z,10.10
2022-10-07T08:58:45.677Z,10.20
2022-10-07T09:01:46.046Z,10.20
2022-10-07T09:04:38.830Z,10.30
2022-10-07T09:07:31.464Z,10.40
2022-10-07T09:10:10.996Z,10.50
2022-10-07T09:13:11.294Z,10.70
2022-10-07T09:16:07.656Z,10.80
2022-10-07T09:18:50.938Z,10.80
2022-10-07T09:21:23.760Z,10.90
2022-10-07T09:23:57.575Z,11.00
2022-10-07T09:26:27.506Z,11.10
2022-10-07T09:28:55.551Z,11.20
2022-10-07T09:31:25.107Z,11.30
2022-10-07T09:33:54.351Z,11.40
2022-10-07T09:36:22.164Z,11.40
2022-10-07T09:38:55.010Z,11.50
2022-10-07T09:41:38.673Z,11.60
2022-10-07T09:44:15.646Z,11.70
2022-10-07T09:46:54.029Z,11.70
2022-10-07T09:49:41.737Z,11.80
2022-10-07T09:52:22.467Z,11.90
2022-10-07T09:54:54.589Z,12.00
2022-10-07T09:57:36.452Z,12.10
2022-10-07T10:00:13.389Z,12.20
2022-10-07T10:02:55.702Z,12.30
2022-10-07T10:05:39.704Z,12.40
2022-10-07T10:08:28.014Z,12.60
2022-10-07T10:10:59.046Z,12.60
2022-10-07T10:13:39.736Z,12.70
2022-10-07T10:16:29.820Z,12.90
2022-10-07T10:19:04.360Z,13.10
2022-10-07T10:21:42.207Z,13.20
2022-10-07T10:24:15.795Z,13.30
2022-10-07T10:27:30.932Z,13.60
2022-10-07T10:30:08.879Z,13.80
2022-10-07T10:33:13.543Z,13.90
2022-10-07T10:36:10.773Z,14.00
2022-10-07T10:39:04.329Z,14.20
2022-10-07T10:41:52.294Z,14.10
2022-10-07T10:45:02.610Z,14.10
2022-10-07T10:48:01.004Z,14.20
2022-10-07T10:50:46.296Z,14.10
2022-10-07T10:53:56.788Z,14.50
2022-10-07T10:57:13.107Z,14.70
2022-10-07T11:00:16.640Z,15.00
2022-10-07T11:03:01.008Z,14.70
2022-10-07T11:05:36.839Z,15.10
2022-10-07T11:08:18.134Z,15.50
2022-10-07T11:11:00.991Z,15.80
2022-10-07T11:14:03.742Z,15.40
2022-10-07T11:16:47.851Z,15.60
2022-10-07T11:19:43.410Z,16.00
2022-10-07T11:22:18.143Z,16.20
2022-10-07T11:24:50.933Z,16.40
2022-10-07T11:27:30.125Z,16.60
2022-10-07T11:30:10.526Z,16.60
2022-10-07T11:32:50.521Z,16.60
2022-10-07T11:35:44.099Z,17.30
2022-10-07T11:38:20.062Z,17.60
2022-10-07T11:40:53.418Z,17.40
2022-10-07T11:43:38.232Z,17.10
2022-10-07T11:46:36.608Z,17.40
2022-10-07T11:49:35.300Z,17.70
2022-10-07T11:52:10.903Z,18.00
2022-10-07T11:55:05.651Z,17.10
2022-10-07T11:57:38.250Z,17.30
2022-10-07T12:00:32.553Z,17.50
2022-10-07T12:03:18.827Z,18.00
2022-10-07T12:05:49.659Z,18.20
2022-10-07T12:08:44.335Z,17.70
2022-10-07T12:11:15.231Z,18.10
2022-10-07T12:13:50.899Z,18.10
2022-10-07T12:16:31.489Z,18.60
2022-10-07T12:19:08.241Z,18.90
2022-10-07T12:22:02.943Z,19.20
2022-10-07T12:24:36.699Z,19.00
2022-10-07T12:27:17.772Z,18.40
2022-10-07T12:30:04.191Z,18.60
2022-10-07T12:32:51.274Z,18.90
2022-10-07T12:35:43.572Z,19.20
2022-10-07T12:38:17.057Z,19.10
2022-10-07T12:41:43.903Z,19.20
2022-10-07T12:44:44.302Z,19.40
2022-10-07T12:47:29.813Z,19.80
2022-10-07T12:50:11.828Z,19.50
2022-10-07T12:52:57.522Z,19.50
2022-10-07T12:55:43.585Z,19.50
2022-10-07T12:59:02.213Z,19.80
2022-10-07T13:02:08.215Z,19.00
2022-10-07T13:05:28.641Z,19.50
2022-10-07T13:08:48.770Z,20.50
2022-10-07T13:11:50.793Z,20.40
2022-10-07T13:14:46.359Z,20.20
2022-10-07T13:17:35.465Z,20.80
2022-10-07T13:20:56.656Z,21.30
2022-10-07T13:23:27.809Z,21.90
2022-10-07T13:25:59.522Z,21.60
2022-10-07T13:28:53.087Z,21.80
2022-10-07T13:31:23.337Z,21.90
2022-10-07T13:33:53.156Z,20.80
2022-10-07T13:36:28.092Z,21.20
2022-10-07T13:39:23.275Z,22.10
2022-10-07T13:41:58.116Z,21.50
2022-10-07T13:44:32.660Z,21.50
2022-10-07T13:47:03.870Z,21.80
2022-10-07T13:49:39.105Z,21.20
2022-10-07T13:52:32.498Z,21.40
2022-10-07T13:55:00.461Z,21.30
2022-10-07T13:57:31.389Z,21.30
2022-10-07T14:00:00.264Z,21.70
2022-10-07T14:02:28.708Z,21.30
2022-10-07T14:05:05.147Z,21.30
2022-10-07T14:07:33.010Z,21.40
2022-10-07T14:10:00.869Z,21.20
2022-10-07T14:12:44.836Z,21.20
2022-10-07T14:15:17.111Z,21.00
2022-10-07T14:17:48.918Z,21.10
2022-10-07T14:20:35.114Z,21.00
2022-10-07T14:23:23.514Z,21.10
2022-10-07T14:25:58.249Z,21.00
2022-10-07T14:28:27.852Z,21.10
2022-10-07T14:31:26.337Z,21.10
2022-10-07T14:34:15.452Z,21.00
2022-10-07T14:37:13.621Z,21.30
2022-10-07T14:39:43.780Z,21.30
2022-10-07T14:42:20.192Z,21.40
2022-10-07T14:44:49.332Z,21.30
2022-10-07T14:47:21.302Z,21.30
2022-10-07T14:49:49.699Z,21.40
2022-10-07T14:52:44.479Z,21.20
2022-10-07T14:55:26.640Z,21.10
2022-10-07T14:57:54.718Z,21.10
2022-10-07T15:00:26.341Z,20.90
2022-10-07T15:02:54.799Z,20.90
2022-10-07T15:05:23.511Z,20.90
2022-10-07T15:07:51.456Z,20.70
2022-10-07T15:10:23.384Z,20.40
2022-10-07T15:12:51.517Z,20.50
2022-10-07T15:15:20.113Z,20.60
2022-10-07T15:17:48.204Z,20.70
2022-10-07T15:20:17.710Z,20.90
2022-10-07T15:22:46.045Z,20.90
2022-10-07T15:25:15.414Z,20.70
2022-10-07T15:27:43.878Z,20.50
2022-10-07T15:30:12.830Z,20.20
2022-10-07T15:32:40.724Z,20.30
2022-10-07T15:35:09.358Z,20.30
2022-10-07T15:37:37.421Z,20.30
2022-10-07T15:40:09.206Z,20.20
2022-10-07T15:42:40.459Z,20.10
2022-10-07T15:45:10.381Z,20.20
2022-10-07T15:47:39.489Z,20.00
2022-10-07T15:50:08.264Z,20.00
2022-10-07T15:52:36.159Z,20.00
2022-10-07T15:55:07.900Z,20.10
2022-10-07T15:57:36.217Z,20.10
2022-10-07T16:00:05.667Z,20.10
2022-10-07T16:02:39.684Z,20.10
2022-10-07T16:05:09.623Z,19.80
2022-10-07T16:07:37.572Z,19.90
2022-10-07T16:10:09.583Z,19.60
2022-10-07T16:12:40.648Z,19.60
2022-10-07T16:15:09.150Z,20.00
2022-10-07T16:17:36.942Z,20.10
2022-10-07T16:20:10.349Z,20.30
2022-10-07T16:22:39.130Z,20.40
2022-10-07T16:25:07.600Z,20.30
2022-10-07T16:27:54.181Z,20.10
2022-10-07T16:30:40.488Z,19.90
2022-10-07T16:33:08.887Z,19.80
2022-10-07T16:35:36.743Z,19.90
2022-10-07T16:38:05.503Z,19.90
2022-10-07T16:40:33.389Z,19.90
2022-10-07T16:43:01.418Z,19.70
2022-10-07T16:55:26.013Z,18.90
2022-10-07T17:00:22.616Z,18.80
2022-10-07T17:02:51.387Z,18.70
2022-10-07T17:05:19.682Z,18.40
2022-10-07T17:07:48.663Z,18.40
2022-10-07T17:12:46.061Z,18.10
2022-10-07T17:15:14.036Z,18.00
2022-10-07T17:17:42.175Z,17.80
2022-10-07T17:20:10.329Z,17.60
2022-10-07T17:22:38.228Z,17.50
2022-10-07T17:25:07.921Z,17.40
2022-10-07T17:27:35.854Z,17.30
2022-10-07T17:30:04.826Z,17.20
2022-10-07T17:32:32.890Z,17.10
2022-10-07T17:35:00.953Z,17.00
2022-10-07T17:37:28.810Z,16.80
2022-10-07T17:39:56.677Z,16.60
2022-10-07T17:42:24.541Z,16.50
2022-10-07T17:44:52.450Z,16.10
2022-10-07T17:47:20.372Z,16.00
2022-10-07T17:54:44.585Z,15.60
2022-10-07T17:59:41.670Z,15.40
2022-10-07T18:02:10.973Z,15.30
2022-10-07T18:04:39.266Z,15.30
2022-10-07T18:07:13.130Z,15.00
2022-10-07T18:09:46.302Z,15.00
2022-10-07T18:12:47.354Z,14.90
2022-10-07T18:15:37.044Z,14.90
2022-10-07T18:18:25.455Z,14.80
2022-10-07T18:20:55.063Z,14.80
2022-10-07T18:23:23.191Z,14.70
2022-10-07T18:25:51.048Z,14.60
2022-10-07T18:28:19.036Z,14.50
2022-10-07T18:30:47.273Z,14.30
2022-10-07T18:33:15.070Z,14.10
2022-10-07T18:35:43.808Z,14.00
2022-10-07T18:38:11.664Z,14.00
2022-10-07T18:40:39.477Z,13.90
2022-10-07T18:43:07.346Z,13.90
2022-10-07T18:45:35.224Z,13.90
2022-10-07T18:48:03.119Z,13.80
2022-10-07T18:50:33.560Z,13.70
2022-10-07T18:53:01.766Z,13.60
2022-10-07T18:55:30.214Z,13.50
2022-10-07T18:57:58.011Z,13.60
2022-10-07T19:00:25.845Z,13.70
2022-10-07T19:02:53.934Z,13.70
2022-10-07T19:05:21.737Z,13.50
2022-10-07T19:07:49.848Z,13.30
2022-10-07T19:10:17.819Z,13.30
2022-10-07T19:15:33.489Z,13.50
2022-10-07T19:18:01.353Z,13.60
2022-10-07T19:20:29.279Z,13.50
2022-10-07T19:22:57.924Z,13.50
2022-10-07T19:25:47.192Z,13.50
2022-10-07T19:28:15.208Z,13.40
2022-10-07T19:30:44.897Z,13.40
2022-10-07T19:33:12.977Z,13.40
2022-10-07T19:35:41.207Z,13.40
2022-10-07T19:38:09.595Z,13.40
2022-10-07T19:40:45.168Z,13.40
2022-10-07T19:43:13.443Z,13.50
2022-10-07T19:45:42.469Z,13.40
2022-10-07T19:48:14.493Z,13.40
2022-10-07T19:50:42.562Z,13.40
2022-10-07T19:53:10.458Z,13.40
2022-10-07T19:55:44.210Z,13.40
2022-10-07T19:58:12.137Z,13.40
2022-10-07T20:00:39.941Z,13.40
2022-10-07T20:03:09.147Z,13.40
2022-10-07T20:05:43.158Z,13.40
2022-10-07T20:08:12.898Z,13.30
2022-10-07T20:10:40.694Z,13.30
2022-10-07T20:13:08.560Z,13.30
2022-10-07T20:15:37.261Z,13.20
2022-10-07T20:18:05.436Z,13.00
2022-10-07T20:20:33.794Z,13.00
2022-10-07T20:23:02.440Z,12.90
2022-10-07T20:25:30.497Z,12.80
2022-10-07T20:27:58.441Z,12.80
2022-10-07T20:30:26.442Z,12.80
2022-10-07T20:32:54.434Z,12.80
2022-10-07T20:35:23.621Z,12.70
2022-10-07T20:37:51.506Z,12.70
2022-10-07T20:40:38.060Z,12.70
2022-10-07T20:43:05.984Z,12.60
2022-10-07T20:45:53.854Z,12.60
2022-10-07T20:48:22.620Z,12.60
2022-10-07T20:50:51.055Z,12.50
2022-10-07T20:53:18.914Z,12.60
2022-10-07T20:55:46.920Z,12.60
2022-10-07T20:58:14.995Z,12.60
2022-10-07T21:00:42.892Z,12.70
2022-10-07T21:03:10.759Z,12.70
2022-10-07T21:05:39.464Z,12.70
2022-10-07T21:08:07.321Z,12.60
2022-10-07T21:13:03.949Z,12.50
2022-10-07T21:17:59.909Z,12.40
2022-10-07T21:25:24.328Z,12.20
2022-10-07T21:27:53.247Z,12.10
2022-10-07T21:30:21.191Z,12.10
2022-10-07T21:37:46.329Z,12.30
2022-10-07T21:40:14.367Z,12.20
2022-10-07T21:42:42.276Z,12.20
2022-10-07T21:45:10.653Z,12.00
2022-10-07T21:47:38.634Z,12.00
2022-10-07T21:50:07.783Z,11.90
2022-10-07T21:52:35.680Z,11.90
2022-10-07T21:55:03.921Z,11.90
2022-10-07T21:57:31.843Z,12.10
2022-10-07T22:07:44.057Z,12.00
2022-10-07T22:10:11.894Z,12.00
2022-10-07T22:12:40.454Z,12.20
2022-10-07T22:15:08.779Z,12.20
2022-10-07T22:17:36.851Z,12.30
2022-10-07T22:20:05.054Z,12.30
2022-10-07T22:22:33.769Z,12.40
2022-10-07T22:25:01.602Z,12.30
2022-10-07T22:27:29.452Z,12.40
2022-10-07T22:29:57.387Z,12.30
2022-10-07T22:32:25.263Z,12.40
2022-10-07T22:35:11.974Z,12.40
2022-10-07T22:37:40.817Z,12.40
2022-10-07T22:40:09.554Z,12.40
2022-10-07T22:42:37.710Z,12.40
2022-10-07T22:45:06.405Z,12.40
2022-10-07T22:47:35.655Z,12.30
2022-10-07T22:50:08.262Z,12.30
2022-10-07T22:52:36.566Z,12.30
2022-10-07T22:55:07.180Z,12.30
2022-10-07T22:57:38.026Z,12.30
2022-10-07T23:00:07.378Z,12.30
2022-10-07T23:02:35.346Z,12.30
2022-10-07T23:05:03.754Z,12.40
2022-10-07T23:07:32.459Z,12.30
2022-10-07T23:10:00.285Z,12.30
2022-10-07T23:12:28.217Z,12.30
2022-10-07T23:14:56.173Z,12.30
2022-10-07T23:17:23.968Z,12.30
2022-10-07T23:19:52.138Z,12.20
2022-10-07T23:24:48.417Z,12.20
2022-10-07T23:29:44.573Z,12.20
2022-10-07T23:37:09.618Z,12.20
2022-10-07T23:44:34.390Z,12.20
2022-10-07T23:56:55.473Z,12.30
